sensor_id;sensor_type;location;lat;lon;timestamp;P1;durP1;ratioP1;P2;durP2;ratioP2
63286;SDS011;49410;55.708;37.522;2022-08-01T00:00:12;8.80;;;3.50;;
63286;SDS011;49410;55.708;37.522;2022-08-01T00:02:38;11.90;;;4.30;;
63286;SDS011;49410;55.708;37.522;2022-08-01T00:05:05;9.13;;;3.72;;
63286;SDS011;49410;55.708;37.522;2022-08-01T00:07:32;9.63;;;4.07;;
63286;SDS011;49410;55.708;37.522;2022-08-01T00:09:58;9.77;;;3.60;;
63286;SDS011;49410;55.708;37.522;2022-08-01T00:12:23;10.80;;;3.50;;
63286;SDS011;49410;55.708;37.522;2022-08-01T00:14:49;9.95;;;3.55;;
63286;SDS011;49410;55.708;37.522;2022-08-01T00:17:14;13.82;;;3.92;;
63286;SDS011;49410;55.708;37.522;2022-08-01T00:19:40;8.60;;;3.40;;
63286;SDS011;49410;55.708;37.522;2022-08-01T00:22:06;9.85;;;3.60;;
63286;SDS011;49410;55.708;37.522;2022-08-01T00:24:32;11.15;;;3.47;;
63286;SDS011;49410;55.708;37.522;2022-08-01T00:26:57;7.40;;;3.60;;
63286;SDS011;49410;55.708;37.522;2022-08-01T00:29:23;7.68;;;3.30;;
63286;SDS011;49410;55.708;37.522;2022-08-01T00:31:48;12.02;;;3.45;;
63286;SDS011;49410;55.708;37.522;2022-08-01T00:34:14;7.95;;;3.30;;
63286;SDS011;49410;55.708;37.522;2022-08-01T00:36:39;9.25;;;3.53;;
63286;SDS011;49410;55.708;37.522;2022-08-01T00:39:05;11.27;;;3.80;;
63286;SDS011;49410;55.708;37.522;2022-08-01T00:41:30;12.02;;;4.05;;
63286;SDS011;49410;55.708;37.522;2022-08-01T00:43:56;9.38;;;3.67;;
63286;SDS011;49410;55.708;37.522;2022-08-01T00:46:22;9.02;;;3.85;;
63286;SDS011;49410;55.708;37.522;2022-08-01T00:48:47;9.25;;;3.55;;
63286;SDS011;49410;55.708;37.522;2022-08-01T00:51:13;10.40;;;3.30;;
63286;SDS011;49410;55.708;37.522;2022-08-01T00:53:39;8.40;;;3.38;;
63286;SDS011;49410;55.708;37.522;2022-08-01T00:56:05;10.68;;;3.50;;
63286;SDS011;49410;55.708;37.522;2022-08-01T00:58:32;11.77;;;3.50;;
63286;SDS011;49410;55.708;37.522;2022-08-01T01:00:59;10.75;;;3.85;;
63286;SDS011;49410;55.708;37.522;2022-08-01T01:03:24;8.77;;;3.17;;
63286;SDS011;49410;55.708;37.522;2022-08-01T01:06:25;7.63;;;3.72;;
63286;SDS011;49410;55.708;37.522;2022-08-01T01:08:55;9.52;;;3.40;;
63286;SDS011;49410;55.708;37.522;2022-08-01T01:14:21;10.98;;;3.88;;
63286;SDS011;49410;55.708;37.522;2022-08-01T01:16:55;7.75;;;3.10;;
63286;SDS011;49410;55.708;37.522;2022-08-01T01:19:24;9.38;;;3.30;;
63286;SDS011;49410;55.708;37.522;2022-08-01T01:22:00;12.35;;;3.53;;
63286;SDS011;49410;55.708;37.522;2022-08-01T01:24:45;8.13;;;3.40;;
63286;SDS011;49410;55.708;37.522;2022-08-01T01:27:22;10.50;;;3.45;;
63286;SDS011;49410;55.708;37.522;2022-08-01T01:29:56;9.27;;;3.60;;
63286;SDS011;49410;55.708;37.522;2022-08-01T01:35:24;10.63;;;3.65;;
63286;SDS011;49410;55.708;37.522;2022-08-01T01:37:54;9.60;;;3.72;;
63286;SDS011;49410;55.708;37.522;2022-08-01T01:40:25;10.15;;;3.63;;
63286;SDS011;49410;55.708;37.522;2022-08-01T01:42:52;9.55;;;4.32;;
63286;SDS011;49410;55.708;37.522;2022-08-01T01:45:21;9.13;;;3.90;;
63286;SDS011;49410;55.708;37.522;2022-08-01T01:47:48;11.52;;;3.72;;
63286;SDS011;49410;55.708;37.522;2022-08-01T01:50:15;8.32;;;3.58;;
63286;SDS011;49410;55.708;37.522;2022-08-01T01:52:44;10.55;;;3.78;;
63286;SDS011;49410;55.708;37.522;2022-08-01T01:55:11;10.52;;;3.88;;
63286;SDS011;49410;55.708;37.522;2022-08-01T01:57:41;10.43;;;3.65;;
63286;SDS011;49410;55.708;37.522;2022-08-01T02:00:10;10.57;;;3.83;;
63286;SDS011;49410;55.708;37.522;2022-08-01T02:02:38;10.38;;;3.63;;
63286;SDS011;49410;55.708;37.522;2022-08-01T02:05:05;16.40;;;4.63;;
63286;SDS011;49410;55.708;37.522;2022-08-01T02:07:33;9.55;;;3.55;;
63286;SDS011;49410;55.708;37.522;2022-08-01T02:10:01;10.38;;;4.10;;
63286;SDS011;49410;55.708;37.522;2022-08-01T02:12:28;7.32;;;3.70;;
63286;SDS011;49410;55.708;37.522;2022-08-01T02:14:58;14.98;;;4.20;;
63286;SDS011;49410;55.708;37.522;2022-08-01T02:17:24;9.60;;;4.00;;
63286;SDS011;49410;55.708;37.522;2022-08-01T02:19:52;9.00;;;3.80;;
63286;SDS011;49410;55.708;37.522;2022-08-01T02:25:23;11.15;;;3.75;;
63286;SDS011;49410;55.708;37.522;2022-08-01T02:27:58;11.07;;;3.88;;
63286;SDS011;49410;55.708;37.522;2022-08-01T02:30:47;10.52;;;3.70;;
63286;SDS011;49410;55.708;37.522;2022-08-01T02:33:17;11.32;;;3.50;;
63286;SDS011;49410;55.708;37.522;2022-08-01T02:35:48;10.48;;;3.22;;
63286;SDS011;49410;55.708;37.522;2022-08-01T02:40:44;13.20;;;4.95;;
63286;SDS011;49410;55.708;37.522;2022-08-01T02:43:12;10.02;;;3.78;;
63286;SDS011;49410;55.708;37.522;2022-08-01T02:48:13;10.30;;;4.20;;
63286;SDS011;49410;55.708;37.522;2022-08-01T02:50:45;11.75;;;3.72;;
63286;SDS011;49410;55.708;37.522;2022-08-01T02:53:14;13.27;;;4.30;;
63286;SDS011;49410;55.708;37.522;2022-08-01T02:55:43;10.32;;;4.03;;
63286;SDS011;49410;55.708;37.522;2022-08-01T02:58:12;14.07;;;4.22;;
63286;SDS011;49410;55.708;37.522;2022-08-01T03:00:40;11.63;;;4.30;;
63286;SDS011;49410;55.708;37.522;2022-08-01T03:03:07;13.38;;;4.18;;
63286;SDS011;49410;55.708;37.522;2022-08-01T03:05:34;18.90;;;4.70;;
63286;SDS011;49410;55.708;37.522;2022-08-01T03:08:01;10.93;;;4.07;;
63286;SDS011;49410;55.708;37.522;2022-08-01T03:10:28;16.67;;;4.93;;
63286;SDS011;49410;55.708;37.522;2022-08-01T03:12:54;11.90;;;4.55;;
63286;SDS011;49410;55.708;37.522;2022-08-01T03:15:22;12.65;;;4.75;;
63286;SDS011;49410;55.708;37.522;2022-08-01T03:17:50;14.25;;;4.30;;
63286;SDS011;49410;55.708;37.522;2022-08-01T03:20:18;10.20;;;4.70;;
63286;SDS011;49410;55.708;37.522;2022-08-01T03:22:46;16.23;;;4.78;;
63286;SDS011;49410;55.708;37.522;2022-08-01T03:25:17;18.63;;;4.85;;
63286;SDS011;49410;55.708;37.522;2022-08-01T03:27:43;9.48;;;4.55;;
63286;SDS011;49410;55.708;37.522;2022-08-01T03:30:10;12.98;;;4.50;;
63286;SDS011;49410;55.708;37.522;2022-08-01T03:32:36;11.90;;;4.80;;
63286;SDS011;49410;55.708;37.522;2022-08-01T03:35:01;10.80;;;4.57;;
63286;SDS011;49410;55.708;37.522;2022-08-01T03:37:28;10.70;;;4.70;;
63286;SDS011;49410;55.708;37.522;2022-08-01T03:40:04;13.25;;;4.93;;
63286;SDS011;49410;55.708;37.522;2022-08-01T03:42:32;16.10;;;4.72;;
63286;SDS011;49410;55.708;37.522;2022-08-01T03:44:59;12.70;;;4.47;;
63286;SDS011;49410;55.708;37.522;2022-08-01T03:47:29;9.80;;;5.13;;
63286;SDS011;49410;55.708;37.522;2022-08-01T03:49:55;11.15;;;4.57;;
63286;SDS011;49410;55.708;37.522;2022-08-01T03:52:23;11.05;;;4.22;;
63286;SDS011;49410;55.708;37.522;2022-08-01T03:54:52;12.18;;;4.38;;
63286;SDS011;49410;55.708;37.522;2022-08-01T03:57:20;11.27;;;5.20;;
63286;SDS011;49410;55.708;37.522;2022-08-01T03:59:47;9.50;;;4.55;;
63286;SDS011;49410;55.708;37.522;2022-08-01T04:02:14;9.93;;;4.28;;
63286;SDS011;49410;55.708;37.522;2022-08-01T04:04:40;11.20;;;4.75;;
63286;SDS011;49410;55.708;37.522;2022-08-01T04:07:20;9.80;;;4.40;;
63286;SDS011;49410;55.708;37.522;2022-08-01T04:09:49;12.43;;;4.82;;
63286;SDS011;49410;55.708;37.522;2022-08-01T04:12:15;11.05;;;4.70;;
63286;SDS011;49410;55.708;37.522;2022-08-01T04:14:40;9.75;;;5.10;;
63286;SDS011;49410;55.708;37.522;2022-08-01T04:17:06;9.88;;;4.35;;
63286;SDS011;49410;55.708;37.522;2022-08-01T04:19:31;9.38;;;4.60;;
63286;SDS011;49410;55.708;37.522;2022-08-01T04:21:57;10.15;;;4.90;;
63286;SDS011;49410;55.708;37.522;2022-08-01T04:24:22;8.30;;;4.70;;
63286;SDS011;49410;55.708;37.522;2022-08-01T04:26:50;11.50;;;5.28;;
63286;SDS011;49410;55.708;37.522;2022-08-01T04:29:17;10.35;;;5.53;;
63286;SDS011;49410;55.708;37.522;2022-08-01T04:31:46;9.98;;;4.65;;
63286;SDS011;49410;55.708;37.522;2022-08-01T04:34:12;11.10;;;4.93;;
63286;SDS011;49410;55.708;37.522;2022-08-01T04:36:40;10.50;;;5.10;;
63286;SDS011;49410;55.708;37.522;2022-08-01T04:39:07;9.18;;;4.35;;
63286;SDS011;49410;55.708;37.522;2022-08-01T04:41:34;8.98;;;4.25;;
63286;SDS011;49410;55.708;37.522;2022-08-01T04:44:02;10.38;;;4.18;;
63286;SDS011;49410;55.708;37.522;2022-08-01T04:46:28;9.90;;;4.70;;
63286;SDS011;49410;55.708;37.522;2022-08-01T04:48:55;11.30;;;4.00;;
63286;SDS011;49410;55.708;37.522;2022-08-01T04:51:20;11.13;;;4.15;;
63286;SDS011;49410;55.708;37.522;2022-08-01T04:53:47;10.38;;;4.57;;
63286;SDS011;49410;55.708;37.522;2022-08-01T04:56:13;11.63;;;3.92;;
63286;SDS011;49410;55.708;37.522;2022-08-01T04:58:40;9.32;;;3.97;;
63286;SDS011;49410;55.708;37.522;2022-08-01T05:01:06;9.13;;;3.50;;
63286;SDS011;49410;55.708;37.522;2022-08-01T05:03:32;12.70;;;3.55;;
63286;SDS011;49410;55.708;37.522;2022-08-01T05:05:58;7.65;;;3.47;;
63286;SDS011;49410;55.708;37.522;2022-08-01T05:08:24;11.02;;;3.45;;
63286;SDS011;49410;55.708;37.522;2022-08-01T05:10:49;8.07;;;3.78;;
63286;SDS011;49410;55.708;37.522;2022-08-01T05:13:15;7.57;;;3.13;;
63286;SDS011;49410;55.708;37.522;2022-08-01T05:15:40;8.32;;;3.22;;
63286;SDS011;49410;55.708;37.522;2022-08-01T05:18:06;8.20;;;3.60;;
63286;SDS011;49410;55.708;37.522;2022-08-01T05:20:31;9.10;;;3.30;;
63286;SDS011;49410;55.708;37.522;2022-08-01T05:22:57;7.90;;;2.75;;
63286;SDS011;49410;55.708;37.522;2022-08-01T05:25:22;6.55;;;2.90;;
63286;SDS011;49410;55.708;37.522;2022-08-01T05:27:48;6.85;;;2.70;;
63286;SDS011;49410;55.708;37.522;2022-08-01T05:30:14;6.72;;;2.55;;
63286;SDS011;49410;55.708;37.522;2022-08-01T05:32:40;5.50;;;2.30;;
63286;SDS011;49410;55.708;37.522;2022-08-01T05:35:06;5.68;;;2.30;;
63286;SDS011;49410;55.708;37.522;2022-08-01T05:37:32;4.82;;;1.98;;
63286;SDS011;49410;55.708;37.522;2022-08-01T05:39:58;6.03;;;2.03;;
63286;SDS011;49410;55.708;37.522;2022-08-01T05:42:23;8.15;;;2.83;;
63286;SDS011;49410;55.708;37.522;2022-08-01T05:44:49;5.45;;;2.05;;
63286;SDS011;49410;55.708;37.522;2022-08-01T05:47:16;7.38;;;1.95;;
63286;SDS011;49410;55.708;37.522;2022-08-01T05:49:42;5.70;;;2.00;;
63286;SDS011;49410;55.708;37.522;2022-08-01T05:52:07;4.20;;;1.90;;
63286;SDS011;49410;55.708;37.522;2022-08-01T05:54:33;5.93;;;1.98;;
63286;SDS011;49410;55.708;37.522;2022-08-01T05:56:59;4.05;;;1.70;;
63286;SDS011;49410;55.708;37.522;2022-08-01T05:59:26;5.65;;;2.33;;
63286;SDS011;49410;55.708;37.522;2022-08-01T06:01:52;5.50;;;1.95;;
63286;SDS011;49410;55.708;37.522;2022-08-01T06:04:17;6.93;;;2.20;;
63286;SDS011;49410;55.708;37.522;2022-08-01T06:06:43;4.68;;;2.22;;
63286;SDS011;49410;55.708;37.522;2022-08-01T06:09:08;5.93;;;2.25;;
63286;SDS011;49410;55.708;37.522;2022-08-01T06:11:34;8.73;;;2.50;;
63286;SDS011;49410;55.708;37.522;2022-08-01T06:13:59;6.82;;;2.22;;
63286;SDS011;49410;55.708;37.522;2022-08-01T06:16:25;5.70;;;2.30;;
63286;SDS011;49410;55.708;37.522;2022-08-01T06:18:51;5.65;;;2.40;;
63286;SDS011;49410;55.708;37.522;2022-08-01T06:21:16;5.38;;;2.17;;
63286;SDS011;49410;55.708;37.522;2022-08-01T06:23:42;6.80;;;2.47;;
63286;SDS011;49410;55.708;37.522;2022-08-01T06:26:08;5.40;;;2.17;;
63286;SDS011;49410;55.708;37.522;2022-08-01T06:28:34;5.35;;;2.15;;
63286;SDS011;49410;55.708;37.522;2022-08-01T06:30:59;6.65;;;2.08;;
63286;SDS011;49410;55.708;37.522;2022-08-01T06:33:25;4.95;;;1.98;;
63286;SDS011;49410;55.708;37.522;2022-08-01T06:35:51;6.10;;;2.40;;
63286;SDS011;49410;55.708;37.522;2022-08-01T06:38:17;5.43;;;2.17;;
63286;SDS011;49410;55.708;37.522;2022-08-01T06:40:42;6.60;;;2.53;;
63286;SDS011;49410;55.708;37.522;2022-08-01T06:43:08;8.13;;;2.22;;
63286;SDS011;49410;55.708;37.522;2022-08-01T06:45:35;5.85;;;2.40;;
63286;SDS011;49410;55.708;37.522;2022-08-01T06:51:10;5.65;;;2.50;;
63286;SDS011;49410;55.708;37.522;2022-08-01T06:53:40;6.80;;;2.33;;
63286;SDS011;49410;55.708;37.522;2022-08-01T06:56:06;7.60;;;2.63;;
63286;SDS011;49410;55.708;37.522;2022-08-01T06:58:33;7.85;;;2.40;;
63286;SDS011;49410;55.708;37.522;2022-08-01T07:00:59;7.95;;;2.67;;
63286;SDS011;49410;55.708;37.522;2022-08-01T07:03:25;6.38;;;2.60;;
63286;SDS011;49410;55.708;37.522;2022-08-01T07:05:52;7.38;;;2.50;;
63286;SDS011;49410;55.708;37.522;2022-08-01T07:08:17;8.27;;;2.33;;
63286;SDS011;49410;55.708;37.522;2022-08-01T07:10:43;7.43;;;2.70;;
63286;SDS011;49410;55.708;37.522;2022-08-01T07:13:08;6.43;;;2.67;;
63286;SDS011;49410;55.708;37.522;2022-08-01T07:15:34;6.82;;;3.60;;
63286;SDS011;49410;55.708;37.522;2022-08-01T07:17:59;10.52;;;3.20;;
63286;SDS011;49410;55.708;37.522;2022-08-01T07:20:28;8.25;;;2.83;;
63286;SDS011;49410;55.708;37.522;2022-08-01T07:22:54;6.53;;;2.78;;
63286;SDS011;49410;55.708;37.522;2022-08-01T07:25:19;7.90;;;2.95;;
63286;SDS011;49410;55.708;37.522;2022-08-01T07:27:45;10.68;;;3.35;;
63286;SDS011;49410;55.708;37.522;2022-08-01T07:30:11;7.45;;;3.50;;
63286;SDS011;49410;55.708;37.522;2022-08-01T07:32:37;8.88;;;3.13;;
63286;SDS011;49410;55.708;37.522;2022-08-01T07:35:02;6.63;;;2.50;;
63286;SDS011;49410;55.708;37.522;2022-08-01T07:37:28;7.38;;;2.80;;
63286;SDS011;49410;55.708;37.522;2022-08-01T07:39:54;8.13;;;2.88;;
63286;SDS011;49410;55.708;37.522;2022-08-01T07:42:19;9.10;;;2.75;;
63286;SDS011;49410;55.708;37.522;2022-08-01T07:44:45;11.55;;;3.08;;
63286;SDS011;49410;55.708;37.522;2022-08-01T07:47:10;5.50;;;2.88;;
63286;SDS011;49410;55.708;37.522;2022-08-01T07:49:37;6.80;;;2.47;;
63286;SDS011;49410;55.708;37.522;2022-08-01T07:52:03;6.10;;;2.60;;
63286;SDS011;49410;55.708;37.522;2022-08-01T07:54:29;6.65;;;2.67;;
63286;SDS011;49410;55.708;37.522;2022-08-01T07:56:54;5.95;;;2.60;;
63286;SDS011;49410;55.708;37.522;2022-08-01T07:59:21;8.85;;;2.75;;
63286;SDS011;49410;55.708;37.522;2022-08-01T08:01:51;6.57;;;2.40;;
63286;SDS011;49410;55.708;37.522;2022-08-01T08:04:17;9.60;;;3.25;;
63286;SDS011;49410;55.708;37.522;2022-08-01T08:06:42;6.50;;;2.60;;
63286;SDS011;49410;55.708;37.522;2022-08-01T08:09:09;9.50;;;2.90;;
63286;SDS011;49410;55.708;37.522;2022-08-01T08:11:35;6.75;;;2.83;;
63286;SDS011;49410;55.708;37.522;2022-08-01T08:14:01;7.10;;;3.10;;
63286;SDS011;49410;55.708;37.522;2022-08-01T08:16:26;7.22;;;3.00;;
63286;SDS011;49410;55.708;37.522;2022-08-01T08:18:52;5.60;;;2.88;;
63286;SDS011;49410;55.708;37.522;2022-08-01T08:21:17;9.32;;;2.95;;
63286;SDS011;49410;55.708;37.522;2022-08-01T08:23:43;8.95;;;3.13;;
63286;SDS011;49410;55.708;37.522;2022-08-01T08:30:08;7.10;;;3.13;;
63286;SDS011;49410;55.708;37.522;2022-08-01T08:36:15;8.32;;;3.25;;
63286;SDS011;49410;55.708;37.522;2022-08-01T08:38:41;8.60;;;3.05;;
63286;SDS011;49410;55.708;37.522;2022-08-01T08:41:06;6.57;;;2.95;;
63286;SDS011;49410;55.708;37.522;2022-08-01T08:43:33;7.07;;;3.17;;
63286;SDS011;49410;55.708;37.522;2022-08-01T08:46:00;7.43;;;2.72;;
63286;SDS011;49410;55.708;37.522;2022-08-01T08:48:26;7.88;;;3.20;;
63286;SDS011;49410;55.708;37.522;2022-08-01T08:50:52;7.60;;;3.33;;
63286;SDS011;49410;55.708;37.522;2022-08-01T08:53:18;5.60;;;2.67;;
63286;SDS011;49410;55.708;37.522;2022-08-01T08:55:44;6.53;;;3.08;;
63286;SDS011;49410;55.708;37.522;2022-08-01T08:58:11;7.90;;;3.35;;
63286;SDS011;49410;55.708;37.522;2022-08-01T09:00:41;7.00;;;3.22;;
63286;SDS011;49410;55.708;37.522;2022-08-01T09:03:06;7.60;;;3.63;;
63286;SDS011;49410;55.708;37.522;2022-08-01T09:05:32;6.80;;;3.40;;
63286;SDS011;49410;55.708;37.522;2022-08-01T09:07:57;10.38;;;3.33;;
63286;SDS011;49410;55.708;37.522;2022-08-01T09:10:23;8.18;;;2.90;;
63286;SDS011;49410;55.708;37.522;2022-08-01T09:15:42;7.97;;;2.72;;
63286;SDS011;49410;55.708;37.522;2022-08-01T09:18:26;5.60;;;2.80;;
63286;SDS011;49410;55.708;37.522;2022-08-01T09:21:29;6.07;;;2.88;;
63286;SDS011;49410;55.708;37.522;2022-08-01T09:23:54;7.45;;;3.00;;
63286;SDS011;49410;55.708;37.522;2022-08-01T09:26:28;5.97;;;2.60;;
63286;SDS011;49410;55.708;37.522;2022-08-01T09:31:24;11.68;;;2.75;;
63286;SDS011;49410;55.708;37.522;2022-08-01T09:33:56;6.80;;;2.72;;
63286;SDS011;49410;55.708;37.522;2022-08-01T09:36:26;7.88;;;2.92;;
63286;SDS011;49410;55.708;37.522;2022-08-01T09:39:11;8.57;;;3.22;;
63286;SDS011;49410;55.708;37.522;2022-08-01T09:41:38;8.63;;;3.08;;
63286;SDS011;49410;55.708;37.522;2022-08-01T09:44:03;7.57;;;2.67;;
63286;SDS011;49410;55.708;37.522;2022-08-01T09:46:29;6.28;;;2.80;;
63286;SDS011;49410;55.708;37.522;2022-08-01T09:48:58;6.65;;;2.80;;
63286;SDS011;49410;55.708;37.522;2022-08-01T09:51:31;7.13;;;2.53;;
63286;SDS011;49410;55.708;37.522;2022-08-01T09:53:59;6.15;;;2.47;;
63286;SDS011;49410;55.708;37.522;2022-08-01T09:56:25;7.53;;;2.67;;
63286;SDS011;49410;55.708;37.522;2022-08-01T09:58:56;6.75;;;2.65;;
63286;SDS011;49410;55.708;37.522;2022-08-01T10:01:22;6.68;;;2.70;;
63286;SDS011;49410;55.708;37.522;2022-08-01T10:04:04;6.70;;;2.60;;
63286;SDS011;49410;55.708;37.522;2022-08-01T10:06:31;8.93;;;2.90;;
63286;SDS011;49410;55.708;37.522;2022-08-01T10:08:57;7.90;;;2.53;;
63286;SDS011;49410;55.708;37.522;2022-08-01T10:11:22;7.95;;;2.30;;
63286;SDS011;49410;55.708;37.522;2022-08-01T10:13:49;4.88;;;2.20;;
63286;SDS011;49410;55.708;37.522;2022-08-01T10:16:15;4.80;;;2.40;;
63286;SDS011;49410;55.708;37.522;2022-08-01T10:18:41;7.05;;;2.60;;
63286;SDS011;49410;55.708;37.522;2022-08-01T10:21:08;7.20;;;2.40;;
63286;SDS011;49410;55.708;37.522;2022-08-01T10:23:36;9.35;;;2.53;;
63286;SDS011;49410;55.708;37.522;2022-08-01T10:26:04;6.53;;;2.38;;
63286;SDS011;49410;55.708;37.522;2022-08-01T10:28:31;8.15;;;2.60;;
63286;SDS011;49410;55.708;37.522;2022-08-01T10:30:59;5.15;;;2.17;;
63286;SDS011;49410;55.708;37.522;2022-08-01T10:33:26;7.40;;;2.28;;
63286;SDS011;49410;55.708;37.522;2022-08-01T10:35:54;6.28;;;2.55;;
63286;SDS011;49410;55.708;37.522;2022-08-01T10:38:20;6.25;;;2.40;;
63286;SDS011;49410;55.708;37.522;2022-08-01T10:40:45;7.95;;;2.38;;
63286;SDS011;49410;55.708;37.522;2022-08-01T10:43:11;10.20;;;3.00;;
63286;SDS011;49410;55.708;37.522;2022-08-01T10:45:38;8.57;;;2.65;;
63286;SDS011;49410;55.708;37.522;2022-08-01T10:50:46;6.55;;;2.70;;
63286;SDS011;49410;55.708;37.522;2022-08-01T10:53:17;5.78;;;2.33;;
63286;SDS011;49410;55.708;37.522;2022-08-01T10:56:05;5.70;;;2.45;;
63286;SDS011;49410;55.708;37.522;2022-08-01T10:58:33;9.35;;;3.10;;
63286;SDS011;49410;55.708;37.522;2022-08-01T11:06:27;8.18;;;2.75;;
63286;SDS011;49410;55.708;37.522;2022-08-01T11:08:59;6.10;;;2.70;;
63286;SDS011;49410;55.708;37.522;2022-08-01T11:11:28;5.68;;;2.53;;
63286;SDS011;49410;55.708;37.522;2022-08-01T11:16:28;8.48;;;2.38;;
63286;SDS011;49410;55.708;37.522;2022-08-01T11:18:58;5.35;;;2.70;;
63286;SDS011;49410;55.708;37.522;2022-08-01T11:27:25;5.78;;;2.67;;
63286;SDS011;49410;55.708;37.522;2022-08-01T11:32:48;6.45;;;2.70;;
63286;SDS011;49410;55.708;37.522;2022-08-01T11:35:15;8.75;;;2.53;;
63286;SDS011;49410;55.708;37.522;2022-08-01T11:37:41;9.27;;;2.90;;
63286;SDS011;49410;55.708;37.522;2022-08-01T11:40:20;5.35;;;2.28;;
63286;SDS011;49410;55.708;37.522;2022-08-01T11:43:15;5.07;;;2.63;;
63286;SDS011;49410;55.708;37.522;2022-08-01T11:45:51;7.15;;;2.30;;
63286;SDS011;49410;55.708;37.522;2022-08-01T11:48:20;6.63;;;2.50;;
63286;SDS011;49410;55.708;37.522;2022-08-01T11:50:53;7.18;;;2.58;;
63286;SDS011;49410;55.708;37.522;2022-08-01T11:53:20;7.05;;;2.90;;
63286;SDS011;49410;55.708;37.522;2022-08-01T11:55:47;5.80;;;2.88;;
63286;SDS011;49410;55.708;37.522;2022-08-01T11:58:15;5.35;;;2.50;;
63286;SDS011;49410;55.708;37.522;2022-08-01T12:00:54;5.75;;;2.63;;
63286;SDS011;49410;55.708;37.522;2022-08-01T12:03:25;5.13;;;2.60;;
63286;SDS011;49410;55.708;37.522;2022-08-01T12:08:53;6.18;;;2.65;;
63286;SDS011;49410;55.708;37.522;2022-08-01T12:11:18;7.82;;;2.88;;
63286;SDS011;49410;55.708;37.522;2022-08-01T12:13:44;5.85;;;2.47;;
63286;SDS011;49410;55.708;37.522;2022-08-01T12:16:11;7.03;;;2.67;;
63286;SDS011;49410;55.708;37.522;2022-08-01T12:18:37;6.10;;;2.75;;
63286;SDS011;49410;55.708;37.522;2022-08-01T12:21:05;5.95;;;2.60;;
63286;SDS011;49410;55.708;37.522;2022-08-01T12:23:30;5.35;;;2.25;;
63286;SDS011;49410;55.708;37.522;2022-08-01T12:25:56;7.03;;;3.00;;
63286;SDS011;49410;55.708;37.522;2022-08-01T12:28:21;5.55;;;2.78;;
63286;SDS011;49410;55.708;37.522;2022-08-01T12:30:48;7.35;;;2.60;;
63286;SDS011;49410;55.708;37.522;2022-08-01T12:33:16;6.57;;;2.80;;
63286;SDS011;49410;55.708;37.522;2022-08-01T12:35:43;7.95;;;3.10;;
63286;SDS011;49410;55.708;37.522;2022-08-01T12:38:15;8.35;;;2.95;;
63286;SDS011;49410;55.708;37.522;2022-08-01T12:40:44;5.65;;;2.55;;
63286;SDS011;49410;55.708;37.522;2022-08-01T12:43:21;6.22;;;2.63;;
63286;SDS011;49410;55.708;37.522;2022-08-01T12:45:50;6.70;;;2.63;;
63286;SDS011;49410;55.708;37.522;2022-08-01T12:48:17;6.78;;;2.78;;
63286;SDS011;49410;55.708;37.522;2022-08-01T12:50:45;10.70;;;2.60;;
63286;SDS011;49410;55.708;37.522;2022-08-01T12:53:12;8.10;;;3.30;;
63286;SDS011;49410;55.708;37.522;2022-08-01T12:55:47;7.85;;;2.97;;
63286;SDS011;49410;55.708;37.522;2022-08-01T12:58:17;7.15;;;2.80;;
63286;SDS011;49410;55.708;37.522;2022-08-01T13:00:45;5.93;;;2.90;;
63286;SDS011;49410;55.708;37.522;2022-08-01T13:08:29;5.55;;;2.38;;
63286;SDS011;49410;55.708;37.522;2022-08-01T13:11:05;6.70;;;2.83;;
63286;SDS011;49410;55.708;37.522;2022-08-01T13:13:39;6.38;;;2.90;;
63286;SDS011;49410;55.708;37.522;2022-08-01T13:16:05;6.53;;;2.50;;
63286;SDS011;49410;55.708;37.522;2022-08-01T13:18:32;6.90;;;2.75;;
63286;SDS011;49410;55.708;37.522;2022-08-01T13:21:09;13.32;;;3.00;;
63286;SDS011;49410;55.708;37.522;2022-08-01T13:29:11;5.53;;;2.80;;
63286;SDS011;49410;55.708;37.522;2022-08-01T13:31:38;6.75;;;2.70;;
63286;SDS011;49410;55.708;37.522;2022-08-01T13:34:05;7.65;;;2.85;;
63286;SDS011;49410;55.708;37.522;2022-08-01T13:36:31;5.88;;;3.13;;
63286;SDS011;49410;55.708;37.522;2022-08-01T13:38:57;6.07;;;2.47;;
63286;SDS011;49410;55.708;37.522;2022-08-01T13:41:41;5.38;;;2.60;;
63286;SDS011;49410;55.708;37.522;2022-08-01T13:44:08;6.90;;;2.83;;
63286;SDS011;49410;55.708;37.522;2022-08-01T13:46:36;6.63;;;2.70;;
63286;SDS011;49410;55.708;37.522;2022-08-01T13:49:02;9.57;;;3.15;;
63286;SDS011;49410;55.708;37.522;2022-08-01T13:51:28;7.30;;;2.83;;
63286;SDS011;49410;55.708;37.522;2022-08-01T13:53:54;7.00;;;2.72;;
63286;SDS011;49410;55.708;37.522;2022-08-01T13:56:19;5.80;;;3.10;;
63286;SDS011;49410;55.708;37.522;2022-08-01T13:58:45;6.15;;;2.55;;
63286;SDS011;49410;55.708;37.522;2022-08-01T14:01:11;6.00;;;2.70;;
63286;SDS011;49410;55.708;37.522;2022-08-01T14:03:37;5.80;;;2.75;;
63286;SDS011;49410;55.708;37.522;2022-08-01T14:06:03;5.63;;;3.50;;
63286;SDS011;49410;55.708;37.522;2022-08-01T14:08:29;7.55;;;2.80;;
63286;SDS011;49410;55.708;37.522;2022-08-01T14:10:55;6.82;;;3.10;;
63286;SDS011;49410;55.708;37.522;2022-08-01T14:13:24;6.60;;;3.08;;
63286;SDS011;49410;55.708;37.522;2022-08-01T14:15:50;7.35;;;3.00;;
63286;SDS011;49410;55.708;37.522;2022-08-01T14:18:16;7.70;;;2.80;;
63286;SDS011;49410;55.708;37.522;2022-08-01T14:23:57;6.00;;;2.65;;
63286;SDS011;49410;55.708;37.522;2022-08-01T14:26:23;6.78;;;2.70;;
63286;SDS011;49410;55.708;37.522;2022-08-01T14:28:48;8.98;;;2.75;;
63286;SDS011;49410;55.708;37.522;2022-08-01T14:31:14;5.55;;;2.65;;
63286;SDS011;49410;55.708;37.522;2022-08-01T14:33:39;8.57;;;2.80;;
63286;SDS011;49410;55.708;37.522;2022-08-01T14:36:05;12.80;;;2.85;;
63286;SDS011;49410;55.708;37.522;2022-08-01T14:38:30;5.25;;;2.30;;
63286;SDS011;49410;55.708;37.522;2022-08-01T14:40:56;5.95;;;2.60;;
63286;SDS011;49410;55.708;37.522;2022-08-01T14:43:22;6.97;;;2.40;;
63286;SDS011;49410;55.708;37.522;2022-08-01T14:45:47;6.28;;;2.63;;
63286;SDS011;49410;55.708;37.522;2022-08-01T14:48:17;6.28;;;2.45;;
63286;SDS011;49410;55.708;37.522;2022-08-01T14:50:43;6.63;;;2.63;;
63286;SDS011;49410;55.708;37.522;2022-08-01T14:53:09;6.78;;;2.60;;
63286;SDS011;49410;55.708;37.522;2022-08-01T14:55:34;7.63;;;2.50;;
63286;SDS011;49410;55.708;37.522;2022-08-01T14:58:00;6.10;;;2.50;;
63286;SDS011;49410;55.708;37.522;2022-08-01T15:00:26;4.78;;;2.30;;
63286;SDS011;49410;55.708;37.522;2022-08-01T15:02:51;5.18;;;2.10;;
63286;SDS011;49410;55.708;37.522;2022-08-01T15:05:17;5.15;;;2.33;;
63286;SDS011;49410;55.708;37.522;2022-08-01T15:07:42;5.22;;;2.60;;
63286;SDS011;49410;55.708;37.522;2022-08-01T15:10:08;7.18;;;2.35;;
63286;SDS011;49410;55.708;37.522;2022-08-01T15:12:34;7.07;;;2.50;;
63286;SDS011;49410;55.708;37.522;2022-08-01T15:15:00;6.15;;;2.33;;
63286;SDS011;49410;55.708;37.522;2022-08-01T15:17:26;5.47;;;2.38;;
63286;SDS011;49410;55.708;37.522;2022-08-01T15:20:00;8.43;;;2.58;;
63286;SDS011;49410;55.708;37.522;2022-08-01T15:22:28;7.43;;;2.65;;
63286;SDS011;49410;55.708;37.522;2022-08-01T15:24:55;6.32;;;2.70;;
63286;SDS011;49410;55.708;37.522;2022-08-01T15:27:22;6.60;;;2.40;;
63286;SDS011;49410;55.708;37.522;2022-08-01T15:29:48;5.13;;;2.40;;
63286;SDS011;49410;55.708;37.522;2022-08-01T15:32:14;10.43;;;3.00;;
63286;SDS011;49410;55.708;37.522;2022-08-01T15:34:40;5.60;;;2.58;;
63286;SDS011;49410;55.708;37.522;2022-08-01T15:37:07;5.40;;;2.50;;
63286;SDS011;49410;55.708;37.522;2022-08-01T15:39:33;7.25;;;2.80;;